Airfield :
LOGIN :

Register | Disclaimer

   EN    FR    IT 

 










Legend :    VFR   Marginal VFR   IFR   Intensive IFR   Very Intensive IFR
Visi :
Ceiling :
>= 8 km
>= 3000ft
5 to 8 km
1000 to 3000 ft
1500m to 5 km
500 to 1000 ft
800 to 1500m
200 to 500 ft
< 800m
< 200 ft
Symbols :   Thunderstorms  Fog  Heavy snow  Heavy precipitations  Wind > 20 kt
SIGMETs :     Misc.  Thunderstorms  Icing  Turbulence  Mountain Waves  Volcanic Ashes






- Airport Elevation : 392 ft
- IATA code : CDG


LFPG - Paris-Aeroport Charles De Gaulle

CURRENT METAR :
  • 052230Z 19012KT 9999 BKN015 18/15 Q1004 NOSIG

EXPIRED METARs :
  • 052200Z 20011KT 9999 BKN013 BKN020 18/15 Q1004 NOSIG
  • 052130Z 19014KT 9999 SCT011 BKN021 18/16 Q1004 NOSIG
  • 052100Z 19012KT 9999 BKN013 BKN041 18/16 Q1004 NOSIG
  • 052030Z 18013KT 9999 SCT008 BKN011 18/16 Q1005 NOSIG
  • 052000Z 18012KT 5000 -RA FEW010 BKN013 18/16 Q1005 TEMPO 20015G25KT 4000 -RA

TAF TAF LFPG
Valid from the 05 at 18:00 until the 07 at 00:00 UTC


051700Z 0518/0624 19015KT 9999 FEW020 BKN040 TX23/0614Z TN16/0605Z
PROB30
TEMPO 0518/0521 4000 -RA
PROB30
TEMPO 0521/0604 4000 -SHRA BKN012 BKN020TCU
BECMG 0604/0606 25010KT BKN014 BKN025
BECMG 0606/0609 SCT025
TEMPO 0611/0617 25015G25KT 4000 -SHRA SCT045TCU
ATIS : +33 1 48 62 10 92



MET'MAP, your aeronautical weather chart ! - Copyright ORBIFLY December 2007 - Disclaimer

ORBIFLY MET'MAP TEAM :

Programming & Development : Alexandra Zaïnal
Concept & original design : Baudouin d'Aumeries
Assistance for programming : Marc-Olivier Méhu
Technical & hardware support : Manuel Goepfert

Contact : metmap@orbifly.com




SOURCES & CREDITS :

   NOAA